createdAt,value
2023-05-04T00:00:22.904Z,70.73
2023-05-04T00:02:53.672Z,70.98
2023-05-04T00:05:24.496Z,70.92
2023-05-04T00:07:54.784Z,70.86
2023-05-04T00:10:25.146Z,70.99
2023-05-04T00:12:56.691Z,70.73
2023-05-04T00:15:27.511Z,70.72
2023-05-04T00:17:58.084Z,70.28
2023-05-04T00:20:28.457Z,70.86
2023-05-04T00:22:58.898Z,70.57
2023-05-04T00:25:29.236Z,70.47
2023-05-04T00:27:59.826Z,70.71
2023-05-04T00:30:30.141Z,70.45
2023-05-04T00:33:02.172Z,70.48
2023-05-04T00:35:34.198Z,70.64
2023-05-04T00:38:09.089Z,70.44
2023-05-04T00:40:40.254Z,70.70
2023-05-04T00:43:11.641Z,70.57
2023-05-04T00:45:44.335Z,70.27
2023-05-04T00:48:14.912Z,70.31
2023-05-04T00:50:45.668Z,69.97
2023-05-04T00:53:16.133Z,70.16
2023-05-04T00:55:46.475Z,69.57
2023-05-04T00:58:17.584Z,69.58
2023-05-04T01:00:48.093Z,69.30
2023-05-04T01:03:18.898Z,69.60
2023-05-04T01:06:18.696Z,69.28
2023-05-04T01:09:13.409Z,69.26
2023-05-04T01:11:54.226Z,68.82
2023-05-04T01:14:25.712Z,68.76
2023-05-04T01:17:00.266Z,68.46
2023-05-04T01:19:31.671Z,68.47
2023-05-04T01:22:02.204Z,68.38
2023-05-04T01:24:33.343Z,68.18
2023-05-04T01:27:19.836Z,68.13
2023-05-04T01:30:08.763Z,68.24
2023-05-04T01:32:41.076Z,67.78
2023-05-04T01:35:14.250Z,67.80
2023-05-04T01:37:44.812Z,67.92
2023-05-04T01:40:15.479Z,67.86
2023-05-04T01:42:46.071Z,67.74
2023-05-04T01:45:16.549Z,67.79
2023-05-04T01:47:47.891Z,67.56
2023-05-04T01:50:18.172Z,67.16
2023-05-04T01:52:49.197Z,66.96
2023-05-04T01:55:20.052Z,67.15
2023-05-04T01:57:50.897Z,66.85
2023-05-04T02:00:22.194Z,67.03
2023-05-04T02:02:52.526Z,66.84
2023-05-04T02:05:23.270Z,66.31
2023-05-04T02:07:53.446Z,66.27
2023-05-04T02:10:24.112Z,66.38
2023-05-04T02:12:54.841Z,66.12
2023-05-04T02:15:26.536Z,66.25
2023-05-04T02:17:56.984Z,66.05
2023-05-04T02:20:27.407Z,65.63
2023-05-04T02:22:57.789Z,65.59
2023-05-04T02:25:29.064Z,65.93
2023-05-04T02:27:59.370Z,65.44
2023-05-04T02:30:29.849Z,65.69
2023-05-04T02:33:01.189Z,65.26
2023-05-04T02:35:32.158Z,65.22
2023-05-04T02:38:03.122Z,65.43
2023-05-04T02:40:33.459Z,64.81
2023-05-04T02:43:03.977Z,64.50
2023-05-04T02:45:38.952Z,64.10
2023-05-04T03:25:06.551Z,63.38
2023-05-04T03:27:36.923Z,63.70
2023-05-04T03:30:08.661Z,63.09
2023-05-04T03:32:40.057Z,63.13
2023-05-04T03:35:10.656Z,63.54
2023-05-04T03:37:41.228Z,63.30
2023-05-04T03:40:11.821Z,63.65
2023-05-04T03:42:43.243Z,63.42
2023-05-04T03:45:14.008Z,63.28
2023-05-04T03:47:44.593Z,63.57
2023-05-04T03:50:15.713Z,63.78
2023-05-04T03:52:46.069Z,63.14
2023-05-04T03:55:16.362Z,63.12
2023-05-04T03:57:51.779Z,62.83
2023-05-04T04:00:22.758Z,63.07
2023-05-04T04:03:01.234Z,62.83
2023-05-04T04:05:32.419Z,62.89
2023-05-04T04:08:03.322Z,63.07
2023-05-04T04:10:34.128Z,62.75
2023-05-04T04:13:05.025Z,63.05
2023-05-04T04:15:35.213Z,62.57
2023-05-04T04:18:05.744Z,62.17
2023-05-04T04:20:36.002Z,62.28
2023-05-04T04:23:06.619Z,62.28
2023-05-04T04:25:36.916Z,62.24
2023-05-04T04:28:07.563Z,62.16
2023-05-04T04:30:38.277Z,61.91
2023-05-04T04:33:08.705Z,62.04
2023-05-04T04:35:39.516Z,61.94
2023-05-04T04:38:10.071Z,61.83
2023-05-04T04:40:40.322Z,61.95
2023-05-04T04:43:10.666Z,61.61
2023-05-04T04:45:43.631Z,61.60
2023-05-04T04:48:13.893Z,61.40
2023-05-04T04:50:44.185Z,61.48
2023-05-04T04:53:14.862Z,61.48
2023-05-04T04:55:45.426Z,61.40
2023-05-04T04:58:16.088Z,61.37
2023-05-04T05:00:47.873Z,61.34
2023-05-04T05:03:18.841Z,61.20
2023-05-04T05:05:49.378Z,61.15
2023-05-04T05:08:19.679Z,61.06
2023-05-04T05:10:50.100Z,60.81
2023-05-04T05:13:20.395Z,60.91
2023-05-04T05:15:50.974Z,60.72
2023-05-04T05:18:21.326Z,59.94
2023-05-04T05:20:51.798Z,60.19
2023-05-04T05:23:22.076Z,59.94
2023-05-04T05:25:52.302Z,59.87
2023-05-04T05:28:22.617Z,60.00
2023-05-04T05:30:54.417Z,60.13
2023-05-04T05:33:24.767Z,60.23
2023-05-04T05:35:55.138Z,60.17
2023-05-04T05:38:25.409Z,60.50
2023-05-04T05:40:55.911Z,60.72
2023-05-04T05:43:25.971Z,60.94
2023-05-04T05:45:56.512Z,60.21
2023-05-04T05:48:27.007Z,60.45
2023-05-04T05:50:57.515Z,60.64
2023-05-04T05:53:27.760Z,60.74
2023-05-04T05:55:58.238Z,60.30
2023-05-04T05:58:28.520Z,60.32
2023-05-04T06:00:58.785Z,59.99
2023-05-04T06:03:29.041Z,60.24
2023-05-04T06:05:59.291Z,60.04
2023-05-04T06:08:29.791Z,59.84
2023-05-04T14:54:06.931Z,64.20
2023-05-04T14:56:37.871Z,64.12
2023-05-04T14:59:08.975Z,64.02
2023-05-04T15:01:39.345Z,64.00
2023-05-04T15:04:09.656Z,63.65
2023-05-04T15:06:40.157Z,63.58
2023-05-04T15:09:11.780Z,63.58
2023-05-04T15:11:42.136Z,63.91
2023-05-04T15:14:12.446Z,63.68
2023-05-04T15:16:43.176Z,64.08
2023-05-04T15:19:13.505Z,63.87
2023-05-04T15:21:44.007Z,63.68
2023-05-04T15:24:14.375Z,63.76
2023-05-04T15:26:45.295Z,63.74
2023-05-04T15:29:15.873Z,63.60
2023-05-04T15:31:46.067Z,63.83
2023-05-04T15:34:18.438Z,63.70
2023-05-04T15:36:49.389Z,63.30
2023-05-04T15:39:19.901Z,63.08
2023-05-04T15:41:50.246Z,63.09
2023-05-04T15:44:23.395Z,63.18
2023-05-04T15:46:53.692Z,63.40
2023-05-04T15:49:24.201Z,63.11
2023-05-04T15:51:55.875Z,63.50
2023-05-04T15:54:26.797Z,63.32
2023-05-04T15:56:57.133Z,63.50
2023-05-04T15:59:27.669Z,63.61
2023-05-04T16:01:58.108Z,63.55
2023-05-04T16:04:28.538Z,63.59
2023-05-04T16:06:59.445Z,63.64
2023-05-04T16:09:30.509Z,63.73
2023-05-04T16:12:00.924Z,63.56
2023-05-04T16:14:31.286Z,63.86
2023-05-04T16:17:04.978Z,63.68
2023-05-04T16:19:35.393Z,63.59
2023-05-04T16:22:05.626Z,63.30
2023-05-04T16:24:36.783Z,63.75
2023-05-04T16:27:06.778Z,63.64
2023-05-04T16:29:36.906Z,63.85
2023-05-04T16:32:07.456Z,63.96
2023-05-04T16:34:37.818Z,63.86
2023-05-04T16:37:10.766Z,63.91
2023-05-04T16:39:41.395Z,64.08
2023-05-04T16:42:11.661Z,64.18
2023-05-04T16:44:42.040Z,64.21
2023-05-04T16:47:12.168Z,64.48
2023-05-04T16:49:42.433Z,64.26
2023-05-04T16:52:12.705Z,64.47
2023-05-04T16:54:43.786Z,64.34
2023-05-04T16:57:14.134Z,64.66
2023-05-04T16:59:44.582Z,64.44
2023-05-04T17:02:14.902Z,64.71
2023-05-04T17:04:46.071Z,64.64
2023-05-04T17:07:16.153Z,64.72
2023-05-04T17:09:46.311Z,64.77
2023-05-04T17:12:17.652Z,64.94
2023-05-04T17:14:48.555Z,64.68
2023-05-04T17:17:18.983Z,64.81
2023-05-04T17:19:49.382Z,64.98
2023-05-04T17:22:19.913Z,64.85
2023-05-04T17:24:50.273Z,65.06
2023-05-04T17:27:20.612Z,64.84
2023-05-04T17:29:50.990Z,64.85
2023-05-04T17:32:21.309Z,64.97
2023-05-04T17:34:51.523Z,65.16
2023-05-04T17:37:21.905Z,65.10
2023-05-04T17:39:52.243Z,65.07
2023-05-04T17:42:22.880Z,64.97
2023-05-04T17:44:53.151Z,64.85
2023-05-04T17:47:23.581Z,64.97
2023-05-04T17:49:53.952Z,64.85
2023-05-04T17:52:24.332Z,64.85
2023-05-04T17:54:56.263Z,64.89
2023-05-04T17:57:26.891Z,65.12
2023-05-04T17:59:57.118Z,64.94
2023-05-04T18:02:27.528Z,64.79
2023-05-04T18:04:57.858Z,64.79
2023-05-04T18:07:28.185Z,64.83
2023-05-04T18:09:59.023Z,65.03
2023-05-04T18:12:29.303Z,65.08
2023-05-04T18:14:59.803Z,64.86
2023-05-04T18:17:31.760Z,65.01
2023-05-04T18:20:02.677Z,64.90
2023-05-04T18:22:33.293Z,64.98
2023-05-04T18:25:03.868Z,64.86
2023-05-04T18:27:35.844Z,64.95
2023-05-04T18:30:07.765Z,64.96
2023-05-04T18:32:38.911Z,65.00
2023-05-04T18:35:09.998Z,64.91
2023-05-04T18:37:40.225Z,64.91
2023-05-04T18:40:11.131Z,64.75
2023-05-04T18:42:41.311Z,64.75
2023-05-04T18:45:13.377Z,64.99
2023-05-04T18:47:43.734Z,64.94
2023-05-04T18:50:14.337Z,65.00
2023-05-04T18:52:44.714Z,65.00
2023-05-04T18:55:15.031Z,65.13
2023-05-04T18:57:45.481Z,64.93
2023-05-04T19:00:16.430Z,65.03
2023-05-04T19:02:46.785Z,64.89
2023-05-04T19:05:17.284Z,65.18
2023-05-04T19:07:47.659Z,65.18
2023-05-04T19:10:17.960Z,65.22
2023-05-04T19:12:48.305Z,65.01
2023-05-04T19:15:18.791Z,65.08
2023-05-04T19:17:49.229Z,65.39
2023-05-04T19:20:19.791Z,65.38
2023-05-04T19:22:50.000Z,65.18
2023-05-04T19:25:33.313Z,65.42
2023-05-04T19:28:11.322Z,65.54
2023-05-04T19:30:42.568Z,65.47
2023-05-04T19:33:12.565Z,65.68
2023-05-04T19:35:42.911Z,65.86
2023-05-04T19:38:13.222Z,65.80
2023-05-04T19:40:43.508Z,66.00
2023-05-04T19:43:13.853Z,65.74
2023-05-04T19:45:44.533Z,65.77
2023-05-04T19:48:17.423Z,66.18
2023-05-04T19:50:47.786Z,65.93
2023-05-04T19:53:18.595Z,66.22
2023-05-04T19:55:50.627Z,66.14
2023-05-04T19:58:20.976Z,66.34
2023-05-04T20:00:51.348Z,66.21
2023-05-04T20:03:21.910Z,66.49
2023-05-04T20:05:54.316Z,66.21
2023-05-04T20:08:24.649Z,66.47
2023-05-04T20:10:54.938Z,66.41
2023-05-04T20:13:25.733Z,66.33
2023-05-04T20:15:56.020Z,66.48
2023-05-04T20:18:26.328Z,66.33
2023-05-04T20:20:56.522Z,66.46
2023-05-04T20:23:26.755Z,66.59
2023-05-04T20:25:57.323Z,66.59
2023-05-04T20:28:27.692Z,66.67
2023-05-04T20:30:58.009Z,66.57
2023-05-04T20:33:28.408Z,66.73
2023-05-04T20:35:59.166Z,66.95
2023-05-04T20:38:29.440Z,66.48
2023-05-04T20:40:59.969Z,66.96
2023-05-04T20:43:30.184Z,67.03
2023-05-04T20:46:00.891Z,66.91
2023-05-04T20:48:31.308Z,66.83
2023-05-04T20:51:13.189Z,67.03
2023-05-04T20:53:44.282Z,67.15
2023-05-04T20:56:14.677Z,67.35
2023-05-04T20:58:45.056Z,67.54
2023-05-04T21:01:15.413Z,67.62
2023-05-04T21:03:45.664Z,67.70
2023-05-04T21:06:16.066Z,67.85
2023-05-04T21:08:46.760Z,67.57
2023-05-04T21:11:17.154Z,67.84
2023-05-04T21:13:48.115Z,67.64
2023-05-04T21:16:18.492Z,67.76
2023-05-04T21:18:48.798Z,67.74
2023-05-04T21:21:19.857Z,67.93
2023-05-04T21:23:50.225Z,68.07
2023-05-04T21:26:20.571Z,67.89
2023-05-04T21:28:50.872Z,67.67
2023-05-04T21:31:22.726Z,67.95
2023-05-04T21:33:54.074Z,67.99
2023-05-04T21:36:25.410Z,68.02
2023-05-04T21:38:57.633Z,68.10
2023-05-04T21:41:28.056Z,68.02
2023-05-04T21:43:58.755Z,68.25
2023-05-04T21:46:29.108Z,67.86
2023-05-04T21:48:59.433Z,68.05
2023-05-04T21:51:30.800Z,68.13
2023-05-04T21:54:01.889Z,67.88
2023-05-04T21:56:32.311Z,67.88
2023-05-04T21:59:02.784Z,68.10
2023-05-04T22:01:33.531Z,68.07
2023-05-04T22:04:03.997Z,68.15
2023-05-04T22:06:34.518Z,68.38
2023-05-04T22:09:05.181Z,68.42
2023-05-04T22:11:35.898Z,68.38
2023-05-04T22:14:06.082Z,68.49
2023-05-04T22:16:36.391Z,68.54
2023-05-04T22:19:06.941Z,68.77
2023-05-04T22:21:39.749Z,68.84
2023-05-04T22:24:10.302Z,68.58
2023-05-04T22:26:41.020Z,68.62
2023-05-04T22:29:11.217Z,68.94
2023-05-04T22:31:41.685Z,68.92
2023-05-04T22:34:11.990Z,68.98
2023-05-04T22:36:43.623Z,68.86
2023-05-04T22:39:14.466Z,68.80
2023-05-04T22:41:44.926Z,68.63
2023-05-04T22:44:15.267Z,68.63
2023-05-04T22:46:45.761Z,68.74
2023-05-04T22:49:16.826Z,69.08
2023-05-04T22:51:49.667Z,69.05
2023-05-04T22:54:20.147Z,68.82
2023-05-04T22:56:50.365Z,69.06
2023-05-04T22:59:20.765Z,69.09
2023-05-04T23:01:52.488Z,69.10
2023-05-04T23:04:23.091Z,68.88
2023-05-04T23:06:53.729Z,68.77
2023-05-04T23:09:23.978Z,68.75
2023-05-04T23:11:57.708Z,68.58
2023-05-04T23:14:27.877Z,68.76
2023-05-04T23:16:58.242Z,68.26
2023-05-04T23:19:28.899Z,68.23
2023-05-04T23:22:02.534Z,68.49
2023-05-04T23:24:32.977Z,68.76
2023-05-04T23:27:03.311Z,68.87
2023-05-04T23:29:33.660Z,69.07
2023-05-04T23:32:04.353Z,69.17
2023-05-04T23:34:34.862Z,69.33
2023-05-04T23:37:05.299Z,69.48
2023-05-04T23:39:35.611Z,69.59
2023-05-04T23:42:05.991Z,69.42
2023-05-04T23:44:36.109Z,69.55
2023-05-04T23:47:06.527Z,69.52
2023-05-04T23:49:36.872Z,69.44
2023-05-04T23:52:08.316Z,69.57
2023-05-04T23:54:38.972Z,69.46
2023-05-04T23:57:12.341Z,69.60
2023-05-04T23:59:42.787Z,69.49
